Time;durP1;ratioP1;P1;durP2;ratioP2;P2;SDS_P1;SDS_P2;PMS_P1;PMS_P2;Temp;Humidity;BMP_temperature;BMP_pressure;BME280_temperature;BME280_humidity;BME280_pressure;Samples;Min_cycle;Max_cycle;Signal;HPM_P1;HPM_P2
2020/12/17 00:01:09;;;;;;;5.07;4.47;;;12.30;99.90;;;;;;6184698;23;20554;-79
2020/12/17 00:03:35;;;;;;;4.90;4.40;;;12.30;99.90;;;;;;6214959;23;20252;-80
2020/12/17 00:06:00;;;;;;;5.00;4.13;;;12.30;99.90;;;;;;6212008;23;20185;-80
2020/12/17 00:08:28;;;;;;;5.40;4.10;;;12.30;99.90;;;;;;6185216;23;20540;-80
2020/12/17 00:10:56;;;;;;;5.40;4.90;;;12.30;99.90;;;;;;6211811;23;20145;-80
2020/12/17 00:13:22;;;;;;;6.33;5.30;;;12.40;99.90;;;;;;6211935;23;20596;-80
2020/12/17 00:15:48;;;;;;;5.18;4.68;;;12.40;99.90;;;;;;6211660;23;21125;-80
2020/12/17 00:18:14;;;;;;;5.97;4.35;;;12.40;99.90;;;;;;6211281;23;20615;-80
2020/12/17 00:20:40;;;;;;;5.10;4.60;;;12.40;99.90;;;;;;6212210;23;20144;-80
2020/12/17 00:23:06;;;;;;;5.10;4.07;;;12.50;99.90;;;;;;6186166;23;21065;-80
2020/12/17 00:25:32;;;;;;;3.97;3.67;;;12.50;99.90;;;;;;6185094;23;20164;-80
2020/12/17 00:27:57;;;;;;;7.07;5.53;;;12.40;99.90;;;;;;6211095;23;20191;-80
2020/12/17 00:30:23;;;;;;;4.70;4.10;;;12.50;99.90;;;;;;6211701;23;20145;-80
2020/12/17 00:32:49;;;;;;;5.30;4.90;;;12.40;99.90;;;;;;6212121;23;20963;-80
2020/12/17 00:35:16;;;;;;;5.70;4.20;;;12.40;99.90;;;;;;6211973;23;20610;-80
2020/12/17 00:37:43;;;;;;;4.95;4.47;;;12.50;99.90;;;;;;6211448;23;20149;-79
2020/12/17 00:40:14;;;;;;;6.30;5.53;;;12.50;99.90;;;;;;6215028;23;20176;-79
2020/12/17 00:42:42;;;;;;;4.30;3.90;;;12.40;99.90;;;;;;6212099;23;20137;-80
2020/12/17 00:45:08;;;;;;;5.32;4.80;;;12.40;99.90;;;;;;6185330;23;20222;-80
2020/12/17 00:47:36;;;;;;;5.20;4.70;;;12.40;99.90;;;;;;6211669;23;20144;-79
2020/12/17 00:50:04;;;;;;;5.77;5.27;;;12.40;99.90;;;;;;6212092;23;20156;-80
2020/12/17 00:52:31;;;;;;;5.45;4.55;;;12.40;99.90;;;;;;6185673;23;20525;-81
2020/12/17 00:54:56;;;;;;;6.45;4.80;;;12.40;99.90;;;;;;6211932;23;20164;-78
2020/12/17 00:57:28;;;;;;;5.90;5.00;;;12.30;99.90;;;;;;6211671;23;20157;-79
2020/12/17 00:59:58;;;;;;;5.47;4.97;;;12.30;99.90;;;;;;6162470;23;20168;-81
2020/12/17 01:02:24;;;;;;;6.77;4.83;;;12.30;99.90;;;;;;6211685;23;20476;-80
2020/12/17 01:04:50;;;;;;;5.33;4.83;;;12.30;99.90;;;;;;6185345;23;20602;-80
2020/12/17 01:07:17;;;;;;;6.10;4.95;;;12.30;99.90;;;;;;6211806;23;20154;-80
2020/12/17 01:09:43;;;;;;;6.00;4.10;;;12.30;99.90;;;;;;6185559;23;20153;-80
2020/12/17 01:12:10;;;;;;;4.68;4.25;;;12.30;99.90;;;;;;6160913;23;20199;-80
2020/12/17 01:14:37;;;;;;;4.60;4.20;;;12.30;99.90;;;;;;6185073;23;20161;-80
2020/12/17 01:17:07;;;;;;;6.05;4.72;;;12.30;99.90;;;;;;6216201;23;20572;-80
2020/12/17 01:19:34;;;;;;;5.07;4.10;;;12.40;99.90;;;;;;6210927;23;20173;-80
2020/12/17 01:22:00;;;;;;;5.10;4.30;;;12.40;99.90;;;;;;6211567;23;20137;-80
2020/12/17 01:24:27;;;;;;;4.43;3.85;;;12.40;99.90;;;;;;6211320;23;20224;-80
2020/12/17 01:26:54;;;;;;;3.73;3.43;;;12.40;99.90;;;;;;6212110;23;20230;-80
2020/12/17 01:29:20;;;;;;;3.97;3.35;;;12.40;99.90;;;;;;6184887;23;20620;-81
2020/12/17 01:31:46;;;;;;;4.05;3.65;;;12.40;99.90;;;;;;6211361;23;20165;-81
2020/12/17 01:34:12;;;;;;;4.73;3.33;;;12.40;99.90;;;;;;6184626;23;20588;-80
2020/12/17 01:36:38;;;;;;;4.70;3.70;;;12.50;99.90;;;;;;6211355;23;20463;-80
2020/12/17 01:39:04;;;;;;;4.90;4.00;;;12.50;99.90;;;;;;6211147;23;20173;-80
2020/12/17 01:41:29;;;;;;;3.63;3.20;;;12.50;99.90;;;;;;6213000;23;20175;-80
2020/12/17 01:44:00;;;;;;;3.33;2.53;;;12.50;99.90;;;;;;6213397;23;20574;-80
2020/12/17 01:46:26;;;;;;;3.10;2.80;;;12.50;99.90;;;;;;6186821;23;20560;-80
2020/12/17 01:48:52;;;;;;;2.83;2.53;;;12.60;99.90;;;;;;6212562;23;20154;-80
2020/12/17 01:51:18;;;;;;;3.43;2.90;;;12.60;99.90;;;;;;6213126;23;20607;-80
2020/12/17 01:53:44;;;;;;;5.37;3.80;;;12.70;99.90;;;;;;6189881;23;20843;-80
2020/12/17 01:56:23;;;;;;;3.65;3.15;;;12.70;99.90;;;;;;6213174;23;20173;-80
2020/12/17 01:59:04;;;;;;;4.53;3.65;;;12.60;99.90;;;;;;6186010;23;20180;-80
2020/12/17 02:01:31;;;;;;;3.40;2.70;;;12.60;99.90;;;;;;6186507;23;20213;-80
2020/12/17 02:03:59;;;;;;;4.15;3.30;;;12.70;99.90;;;;;;6186762;23;20161;-80
2020/12/17 02:06:24;;;;;;;3.30;2.85;;;12.60;99.90;;;;;;6213096;23;20257;-80
2020/12/17 02:08:51;;;;;;;3.37;3.00;;;12.60;99.90;;;;;;6185645;23;20531;-80
2020/12/17 02:11:19;;;;;;;2.88;2.65;;;12.60;99.90;;;;;;6212961;23;20850;-80
2020/12/17 02:13:46;;;;;;;3.03;2.75;;;12.70;99.90;;;;;;6213102;23;20145;-80
2020/12/17 02:16:13;;;;;;;2.90;2.60;;;12.70;99.90;;;;;;6213018;23;20189;-80
2020/12/17 02:18:39;;;;;;;3.50;3.20;;;12.60;99.90;;;;;;6212325;23;20203;-80
2020/12/17 02:21:05;;;;;;;4.13;3.77;;;12.70;99.90;;;;;;6212914;23;20174;-80
2020/12/17 02:23:32;;;;;;;4.73;3.17;;;12.70;99.90;;;;;;6186218;23;21042;-80
2020/12/17 02:25:58;;;;;;;4.80;3.85;;;12.60;99.90;;;;;;6212944;23;20613;-80
2020/12/17 02:28:23;;;;;;;5.40;3.67;;;12.70;99.90;;;;;;6212580;23;20149;-81
2020/12/17 02:30:50;;;;;;;4.23;3.13;;;12.60;99.90;;;;;;6189907;23;20189;-80
2020/12/17 02:33:16;;;;;;;3.00;2.70;;;12.70;99.90;;;;;;6212755;23;20172;-80
2020/12/17 02:35:43;;;;;;;3.90;3.50;;;12.60;99.90;;;;;;6212744;23;20175;-80
2020/12/17 02:38:09;;;;;;;4.80;3.33;;;12.70;99.90;;;;;;6211948;23;20153;-80
2020/12/17 02:40:35;;;;;;;4.80;3.37;;;12.70;99.90;;;;;;6212470;23;20177;-80
2020/12/17 02:43:01;;;;;;;4.05;3.42;;;12.70;99.90;;;;;;6212641;23;20141;-80
2020/12/17 02:45:28;;;;;;;5.65;2.63;;;12.60;99.90;;;;;;6212809;23;20169;-80
2020/12/17 02:47:54;;;;;;;4.83;2.90;;;12.60;99.90;;;;;;6185825;23;20137;-80
2020/12/17 02:50:19;;;;;;;3.73;2.83;;;12.60;99.90;;;;;;6212178;23;20620;-80
2020/12/17 02:52:46;;;;;;;3.03;2.77;;;12.60;99.90;;;;;;6185989;23;20207;-80
2020/12/17 02:55:15;;;;;;;4.03;2.90;;;12.60;99.90;;;;;;6187132;23;20169;-80
2020/12/17 02:57:41;;;;;;;5.73;3.60;;;12.60;99.90;;;;;;6212221;23;20232;-80
2020/12/17 03:00:10;;;;;;;3.70;3.13;;;12.60;99.90;;;;;;6212394;23;20260;-80
2020/12/17 03:02:36;;;;;;;4.22;3.50;;;12.60;99.90;;;;;;6212429;23;20141;-80
2020/12/17 03:05:04;;;;;;;4.40;4.00;;;12.60;99.90;;;;;;6186126;23;20172;-81
2020/12/17 03:07:30;;;;;;;3.38;3.08;;;12.60;99.90;;;;;;6214030;23;20141;-80
2020/12/17 03:10:00;;;;;;;2.70;2.50;;;12.60;99.90;;;;;;6214147;23;20157;-80
2020/12/17 03:12:25;;;;;;;4.13;2.95;;;12.60;99.90;;;;;;6212320;23;20535;-80
2020/12/17 03:14:51;;;;;;;4.10;3.47;;;12.60;99.90;;;;;;6185802;23;20805;-80
2020/12/17 03:17:17;;;;;;;2.42;2.10;;;12.50;99.90;;;;;;6211791;23;20186;-80
2020/12/17 03:19:43;;;;;;;3.17;2.60;;;12.60;99.90;;;;;;6212026;23;20172;-80
2020/12/17 03:22:09;;;;;;;4.00;3.30;;;12.50;99.90;;;;;;6212238;23;20206;-80
2020/12/17 03:24:35;;;;;;;2.93;2.67;;;12.60;99.90;;;;;;6212439;23;20567;-80
2020/12/17 03:27:01;;;;;;;3.80;3.03;;;12.60;99.90;;;;;;6212609;23;20513;-80
2020/12/17 03:29:27;;;;;;;4.72;2.90;;;12.50;99.90;;;;;;6185150;23;20607;-80
2020/12/17 03:31:53;;;;;;;3.80;3.50;;;12.50;99.90;;;;;;6185512;23;20145;-80
2020/12/17 03:34:18;;;;;;;4.00;3.13;;;12.50;99.90;;;;;;6211924;23;20517;-80
2020/12/17 03:36:44;;;;;;;3.63;2.77;;;12.50;99.90;;;;;;6212408;23;20145;-80
2020/12/17 03:39:10;;;;;;;5.47;3.10;;;12.50;99.90;;;;;;6211515;23;20260;-80
2020/12/17 03:41:36;;;;;;;3.40;3.10;;;12.50;99.90;;;;;;6212058;23;20212;-80
2020/12/17 03:44:02;;;;;;;3.50;3.20;;;12.50;99.90;;;;;;6213659;23;21110;-81
2020/12/17 03:46:28;;;;;;;4.20;3.07;;;12.50;99.90;;;;;;6216863;23;20579;-82
2020/12/17 03:48:53;;;;;;;3.60;3.30;;;12.50;99.90;;;;;;6211618;23;20200;-81
2020/12/17 03:51:19;;;;;;;3.67;3.23;;;12.50;99.90;;;;;;6186085;23;20479;-81
2020/12/17 03:53:45;;;;;;;5.00;3.80;;;12.50;99.90;;;;;;6212395;23;20231;-82
2020/12/17 03:56:11;;;;;;;4.50;3.07;;;12.50;99.90;;;;;;6212182;23;20513;-81
2020/12/17 03:58:36;;;;;;;4.57;3.47;;;12.40;99.90;;;;;;6211654;23;20542;-81
2020/12/17 04:01:02;;;;;;;3.60;3.30;;;12.50;99.90;;;;;;6212132;23;20231;-82
2020/12/17 04:03:28;;;;;;;3.50;3.10;;;12.50;99.90;;;;;;6184838;23;20164;-81
2020/12/17 04:05:54;;;;;;;3.73;3.40;;;12.50;99.90;;;;;;6185715;23;20165;-81
2020/12/17 04:08:20;;;;;;;4.77;2.57;;;12.50;99.90;;;;;;6185019;23;20550;-81
2020/12/17 04:10:45;;;;;;;3.30;2.97;;;12.50;99.90;;;;;;6211916;23;20203;-81
2020/12/17 04:13:15;;;;;;;3.47;3.17;;;12.50;99.90;;;;;;6186533;23;21280;-82
2020/12/17 04:15:52;;;;;;;4.93;3.55;;;12.50;99.90;;;;;;6211972;23;20172;-81
2020/12/17 04:18:17;;;;;;;5.37;3.57;;;12.50;99.90;;;;;;6211292;23;20136;-81
2020/12/17 04:20:43;;;;;;;3.23;2.93;;;12.50;99.90;;;;;;6185216;23;20164;-81
2020/12/17 04:23:10;;;;;;;3.30;3.00;;;12.50;99.90;;;;;;6188755;23;20531;-81
2020/12/17 04:25:38;;;;;;;5.00;3.28;;;12.50;99.90;;;;;;6212139;23;20242;-81
2020/12/17 04:28:04;;;;;;;4.20;2.90;;;12.50;99.90;;;;;;6211533;23;20137;-81
2020/12/17 04:30:29;;;;;;;4.60;3.10;;;12.50;99.90;;;;;;6211566;23;20205;-81
2020/12/17 04:32:57;;;;;;;3.95;2.97;;;12.50;99.90;;;;;;6211835;23;20159;-82
2020/12/17 04:35:23;;;;;;;2.30;2.10;;;12.50;99.90;;;;;;6211782;23;20177;-81
2020/12/17 04:37:49;;;;;;;5.20;2.87;;;12.50;99.90;;;;;;6211732;23;20382;-82
2020/12/17 04:40:14;;;;;;;4.30;3.40;;;12.60;99.90;;;;;;6185427;23;20308;-82
2020/12/17 04:42:43;;;;;;;3.50;3.20;;;12.50;99.90;;;;;;6212564;23;20513;-81
2020/12/17 04:45:09;;;;;;;4.18;3.15;;;12.50;99.90;;;;;;6212146;23;20165;-82
2020/12/17 04:47:38;;;;;;;3.40;3.10;;;12.60;99.90;;;;;;6159824;23;20232;-81
2020/12/17 04:50:09;;;;;;;3.58;3.28;;;12.60;99.90;;;;;;6185087;23;20145;-82
2020/12/17 04:52:37;;;;;;;4.72;3.05;;;12.60;99.90;;;;;;6212187;23;20215;-82
2020/12/17 04:55:04;;;;;;;3.95;2.83;;;12.60;99.90;;;;;;6212028;23;20256;-82
2020/12/17 04:57:32;;;;;;;4.60;3.17;;;12.60;99.90;;;;;;6184927;23;20860;-83
2020/12/17 04:59:58;;;;;;;5.03;3.22;;;12.60;99.90;;;;;;6189516;23;20180;-83
2020/12/17 05:02:25;;;;;;;3.53;3.10;;;12.60;99.90;;;;;;6211359;23;20165;-83
2020/12/17 05:04:53;;;;;;;3.42;3.00;;;12.60;99.90;;;;;;6211928;23;20239;-83
2020/12/17 05:07:24;;;;;;;4.05;2.95;;;12.70;99.90;;;;;;6211461;23;20216;-82
2020/12/17 05:09:51;;;;;;;3.30;3.00;;;12.70;99.90;;;;;;6211751;23;20153;-83
2020/12/17 05:12:17;;;;;;;7.30;3.40;;;12.70;99.90;;;;;;6210516;23;20532;-83
2020/12/17 05:14:45;;;;;;;3.28;2.60;;;12.70;99.90;;;;;;6211700;23;20165;-83
2020/12/17 05:17:11;;;;;;;3.88;3.08;;;12.80;99.90;;;;;;6212404;23;20543;-82
2020/12/17 05:19:37;;;;;;;3.65;2.67;;;12.80;99.90;;;;;;6212526;23;20184;-82
2020/12/17 05:22:05;;;;;;;4.77;2.87;;;12.80;99.90;;;;;;6212518;23;20141;-82
2020/12/17 05:24:31;;;;;;;3.50;3.00;;;12.80;99.90;;;;;;6186014;23;20524;-82
2020/12/17 05:26:58;;;;;;;3.93;2.77;;;12.80;99.90;;;;;;6213680;23;20224;-81
2020/12/17 05:29:25;;;;;;;3.75;3.47;;;12.90;99.90;;;;;;6213073;23;20551;-82
2020/12/17 05:31:52;;;;;;;3.72;3.42;;;12.90;99.90;;;;;;6213655;23;20149;-81
2020/12/17 05:34:18;;;;;;;4.40;3.50;;;12.90;99.90;;;;;;6213566;23;20141;-81
2020/12/17 05:36:48;;;;;;;5.47;3.70;;;12.90;99.90;;;;;;6215664;23;20180;-81
2020/12/17 05:39:22;;;;;;;4.40;3.35;;;12.90;99.90;;;;;;6185838;23;20561;-81
2020/12/17 05:41:50;;;;;;;4.85;3.20;;;12.90;99.90;;;;;;6161754;23;20130;-81
2020/12/17 05:44:28;;;;;;;3.80;2.95;;;12.90;99.90;;;;;;6213009;23;20148;-81
2020/12/17 05:46:55;;;;;;;4.20;3.13;;;12.90;99.90;;;;;;6186407;23;20183;-81
2020/12/17 05:49:29;;;;;;;2.72;2.50;;;13.00;99.90;;;;;;6212486;23;20145;-81
2020/12/17 05:52:14;;;;;;;3.47;2.55;;;12.90;99.90;;;;;;6213207;23;20149;-81
2020/12/17 05:54:43;;;;;;;4.07;2.95;;;13.00;99.90;;;;;;6213312;23;20615;-81
2020/12/17 05:57:25;;;;;;;3.53;3.22;;;13.00;99.90;;;;;;6212963;23;20200;-81
2020/12/17 05:59:55;;;;;;;4.35;3.38;;;13.00;99.90;;;;;;6214415;23;20510;-81
2020/12/17 06:02:22;;;;;;;3.00;2.80;;;13.00;99.90;;;;;;6186275;23;20216;-81
2020/12/17 06:05:10;;;;;;;3.47;3.15;;;13.00;99.90;;;;;;6162586;23;20590;-81
2020/12/17 06:07:47;;;;;;;3.35;3.03;;;13.00;99.90;;;;;;6185839;23;20156;-81
2020/12/17 06:10:22;;;;;;;3.35;2.70;;;13.00;99.90;;;;;;6161251;23;20199;-81
2020/12/17 06:12:54;;;;;;;4.20;2.50;;;13.00;99.90;;;;;;6187020;23;20207;-81
2020/12/17 06:15:22;;;;;;;2.90;2.42;;;13.00;99.90;;;;;;6189294;23;20164;-81
2020/12/17 06:17:53;;;;;;;3.67;2.97;;;13.10;99.90;;;;;;6156236;23;20478;-81
2020/12/17 06:20:21;;;;;;;5.03;3.40;;;13.00;99.90;;;;;;6107379;23;20509;-81
2020/12/17 06:23:09;;;;;;;3.55;2.97;;;13.10;99.90;;;;;;6157014;23;20157;-83
2020/12/17 06:25:36;;;;;;;4.32;3.50;;;13.00;99.90;;;;;;6107599;23;20181;-83
2020/12/17 06:28:03;;;;;;;4.38;3.97;;;13.10;99.90;;;;;;6131937;23;20154;-82
2020/12/17 06:30:32;;;;;;;3.78;2.95;;;13.10;99.90;;;;;;6107517;23;20153;-82
2020/12/17 06:33:00;;;;;;;5.80;4.00;;;13.10;99.90;;;;;;6156365;23;20697;-82
2020/12/17 06:35:39;;;;;;;4.85;4.03;;;13.00;99.90;;;;;;6155737;23;20834;-82
2020/12/17 06:44:58;;;;;;;6.95;3.55;;;13.00;99.90;;;;;;6130128;23;20653;-82
2020/12/17 06:47:32;;;;;;;3.30;3.00;;;13.10;99.90;;;;;;6108531;23;20569;-83
2020/12/17 06:53:55;;;;;;;5.50;5.00;;;13.00;99.90;;;;;;6134758;23;20672;-82
2020/12/17 06:56:57;;;;;;;4.10;3.55;;;12.90;99.90;;;;;;6162160;23;20169;-82
2020/12/17 06:59:41;;;;;;;4.50;3.92;;;12.90;99.90;;;;;;6131815;23;20177;-82
2020/12/17 07:03:11;;;;;;;4.57;3.28;;;12.90;99.90;;;;;;6131765;23;20160;-82
2020/12/17 07:05:43;;;;;;;3.42;3.10;;;12.90;99.90;;;;;;6181395;23;20164;-81
2020/12/17 07:08:11;;;;;;;3.72;3.25;;;12.90;99.90;;;;;;6157028;23;20181;-82
2020/12/17 07:10:54;;;;;;;4.68;3.28;;;12.90;99.90;;;;;;6157441;23;20133;-82
2020/12/17 07:13:54;;;;;;;4.05;3.65;;;12.90;99.90;;;;;;6107566;23;20228;-82
2020/12/17 07:16:37;;;;;;;4.03;3.67;;;12.80;99.90;;;;;;6162014;23;20796;-82
2020/12/17 07:20:13;;;;;;;;;;;;;;;;;;;;;
2020/12/17 07:23:04;;;;;;;4.38;3.97;;;12.70;99.90;;;;;;6177846;23;20515;-82
2020/12/17 07:26:11;;;;;;;4.90;3.65;;;12.70;99.90;;;;;;6140502;23;20244;-82
2020/12/17 07:28:38;;;;;;;5.75;3.95;;;12.70;99.90;;;;;;6136664;23;20491;-82
2020/12/17 07:31:05;;;;;;;6.88;3.65;;;12.60;99.90;;;;;;6180796;23;20142;-82
2020/12/17 07:33:36;;;;;;;4.65;3.30;;;12.60;99.90;;;;;;6156894;23;20169;-82
2020/12/17 07:36:03;;;;;;;4.03;3.53;;;12.50;99.90;;;;;;6156540;23;20220;-82
2020/12/17 07:38:30;;;;;;;4.22;3.65;;;12.50;99.90;;;;;;6155930;23;20688;-82
2020/12/17 07:40:56;;;;;;;5.50;3.72;;;12.50;99.90;;;;;;6156153;23;20153;-83
2020/12/17 07:43:24;;;;;;;3.88;3.58;;;12.50;99.90;;;;;;6181065;23;20615;-83
2020/12/17 07:46:47;;;;;;;3.70;3.25;;;12.50;99.90;;;;;;6182345;23;20285;-83
2020/12/17 07:49:39;;;;;;;3.80;2.92;;;12.50;99.90;;;;;;6138953;23;20153;-82
2020/12/17 07:52:08;;;;;;;5.93;3.78;;;12.50;99.90;;;;;;6132861;23;20173;-82
2020/12/17 07:54:34;;;;;;;5.70;2.90;;;12.50;99.90;;;;;;6181886;23;20173;-83
2020/12/17 07:57:03;;;;;;;6.00;3.45;;;12.50;99.90;;;;;;6132087;23;20162;-83
2020/12/17 07:59:37;;;;;;;4.70;3.10;;;12.40;99.90;;;;;;6131500;23;20520;-83
2020/12/17 08:02:11;;;;;;;11.63;2.63;;;12.40;99.90;;;;;;6130984;23;20619;-83
2020/12/17 08:04:53;;;;;;;2.60;1.85;;;12.50;99.90;;;;;;6160325;23;20176;-84
2020/12/17 08:07:22;;;;;;;5.00;1.58;;;12.40;99.90;;;;;;6131022;23;20576;-83
2020/12/17 08:10:00;;;;;;;2.55;1.63;;;12.40;99.90;;;;;;6181908;23;20576;-83
2020/12/17 08:12:37;;;;;;;3.85;1.90;;;12.40;99.90;;;;;;6155460;23;20146;-83
2020/12/17 08:15:18;;;;;;;1.92;1.50;;;12.40;99.90;;;;;;6182079;23;20215;-84
2020/12/17 08:17:58;;;;;;;2.20;1.92;;;12.40;99.90;;;;;;6160583;23;20145;-82
2020/12/17 08:20:31;;;;;;;3.92;1.75;;;12.40;99.90;;;;;;6159962;23;20165;-84
2020/12/17 08:23:03;;;;;;;2.80;1.40;;;12.40;99.90;;;;;;6138226;23;20144;-82
2020/12/17 08:25:29;;;;;;;2.00;1.17;;;12.40;99.90;;;;;;6184704;23;20604;-83
2020/12/17 08:27:56;;;;;;;2.30;1.25;;;12.40;99.90;;;;;;6184805;23;20578;-83
2020/12/17 08:30:22;;;;;;;3.28;1.42;;;12.40;99.90;;;;;;6211448;23;20157;-83
2020/12/17 08:33:02;;;;;;;2.00;1.10;;;12.40;99.90;;;;;;6160479;23;20163;-81
2020/12/17 08:35:28;;;;;;;1.80;1.20;;;12.40;99.90;;;;;;6136100;23;20172;-84
2020/12/17 08:37:59;;;;;;;3.67;1.30;;;12.40;99.90;;;;;;6135412;23;20167;-82
2020/12/17 08:40:51;;;;;;;1.38;1.05;;;12.40;99.90;;;;;;6137400;23;20188;-82
2020/12/17 08:43:26;;;;;;;1.42;1.10;;;12.40;99.90;;;;;;6163924;23;20180;-82
2020/12/17 08:45:57;;;;;;;3.13;1.15;;;12.50;99.90;;;;;;6135663;23;20195;-83
2020/12/17 08:52:33;;;;;;;1.58;1.10;;;12.50;99.90;;;;;;6190940;23;20144;-84
2020/12/17 08:55:08;;;;;;;2.28;1.08;;;12.50;99.90;;;;;;6063595;23;20173;-83
2020/12/17 08:57:34;;;;;;;2.55;1.13;;;12.50;99.90;;;;;;6132778;23;20172;-83
2020/12/17 09:00:13;;;;;;;2.00;1.15;;;12.40;99.90;;;;;;6133179;23;20181;-84
2020/12/17 09:03:05;;;;;;;2.30;0.90;;;12.40;99.90;;;;;;6134070;23;20604;-84
2020/12/17 09:05:46;;;;;;;2.75;1.00;;;12.50;99.90;;;;;;6110465;23;20170;-83
2020/12/17 09:08:28;;;;;;;4.07;1.25;;;12.50;99.90;;;;;;6134544;23;20170;-83
2020/12/17 09:11:01;;;;;;;2.35;1.00;;;12.50;99.90;;;;;;6134497;23;20152;-83
2020/12/17 09:13:28;;;;;;;2.10;1.02;;;12.50;99.90;;;;;;6108465;23;20177;-83
2020/12/17 09:16:15;;;;;;;3.40;1.00;;;12.50;99.90;;;;;;6151797;23;20178;-83
2020/12/17 09:19:06;;;;;;;2.20;1.05;;;12.50;99.90;;;;;;6129934;23;20621;-83
2020/12/17 09:22:23;;;;;;;1.80;1.30;;;12.50;99.90;;;;;;6152106;23;20138;-83
2020/12/17 09:24:54;;;;;;;2.05;1.55;;;12.60;99.90;;;;;;6147378;23;20185;-83
2020/12/17 09:27:36;;;;;;;1.50;0.80;;;12.60;99.90;;;;;;6127479;23;20603;-83
2020/12/17 09:30:02;;;;;;;3.03;0.80;;;12.60;99.90;;;;;;6152551;23;20138;-84
2020/12/17 09:32:34;;;;;;;7.10;1.00;;;12.60;99.90;;;;;;6152222;23;20532;-83
2020/12/17 09:35:09;;;;;;;1.40;0.80;;;12.60;99.90;;;;;;6152334;23;20182;-84
2020/12/17 09:37:36;;;;;;;2.03;0.80;;;12.60;99.90;;;;;;6153181;23;20150;-84
2020/12/17 09:40:05;;;;;;;2.57;1.23;;;12.60;99.90;;;;;;6103411;23;20182;-84
2020/12/17 09:42:31;;;;;;;4.55;1.10;;;12.60;99.90;;;;;;6152164;23;20530;-84
2020/12/17 09:45:20;;;;;;;3.13;1.08;;;12.60;99.90;;;;;;6152297;23;20512;-84
2020/12/17 09:47:52;;;;;;;1.98;1.20;;;12.70;99.90;;;;;;6127074;23;20150;-80
2020/12/17 09:51:00;;;;;;;3.00;1.10;;;12.70;99.90;;;;;;6126468;23;20209;-80
2020/12/17 09:54:13;;;;;;;;;;;;;;;;;;;;;
2020/12/17 09:57:01;;;;;;;1.80;1.00;;;12.80;99.90;;;;;;6155365;23;20142;-79
2020/12/17 09:59:30;;;;;;;2.05;1.00;;;12.90;99.90;;;;;;6151031;23;20159;-79
2020/12/17 10:02:15;;;;;;;2.25;1.05;;;12.90;99.90;;;;;;6126796;23;20149;-81
2020/12/17 10:04:42;;;;;;;2.22;1.27;;;12.90;99.90;;;;;;6103112;23;20205;-80
2020/12/17 10:07:09;;;;;;;3.60;1.15;;;13.00;99.90;;;;;;6127441;23;20161;-80
2020/12/17 10:09:35;;;;;;;2.25;1.00;;;13.00;99.90;;;;;;6126632;23;20487;-80
2020/12/17 10:12:02;;;;;;;3.17;1.10;;;13.20;99.90;;;;;;6102746;23;20165;-80
2020/12/17 10:14:29;;;;;;;2.92;1.30;;;13.20;99.90;;;;;;6102688;23;20471;-80
2020/12/17 10:17:00;;;;;;;1.92;1.05;;;13.30;99.90;;;;;;6102787;23;20178;-78
2020/12/17 10:19:31;;;;;;;3.55;1.30;;;13.40;99.90;;;;;;6103061;23;20225;-78
2020/12/17 10:21:58;;;;;;;3.60;1.03;;;13.40;99.90;;;;;;6102427;23;20463;-78
2020/12/17 10:24:25;;;;;;;2.30;0.90;;;13.50;99.90;;;;;;6102777;23;20621;-78
2020/12/17 10:26:50;;;;;;;1.77;0.90;;;13.60;99.90;;;;;;6127404;23;20557;-78
2020/12/17 10:29:17;;;;;;;1.10;0.60;;;13.60;99.90;;;;;;6152081;23;20158;-79
2020/12/17 10:31:43;;;;;;;1.50;0.60;;;13.70;99.90;;;;;;6126953;23;20186;-79
2020/12/17 10:34:08;;;;;;;2.23;1.30;;;13.80;99.90;;;;;;6153635;23;20608;-79
2020/12/17 10:36:39;;;;;;;1.27;0.70;;;13.80;99.90;;;;;;6150702;23;20958;-79
2020/12/17 10:39:07;;;;;;;1.50;0.70;;;13.90;99.90;;;;;;6151812;23;20636;-79
2020/12/17 10:41:34;;;;;;;2.83;0.70;;;14.00;99.90;;;;;;6126027;23;21091;-78
2020/12/17 10:44:00;;;;;;;3.30;0.70;;;14.10;99.90;;;;;;6152674;23;20561;-78
2020/12/17 10:46:26;;;;;;;1.00;0.60;;;14.20;99.90;;;;;;6126816;23;20903;-79
2020/12/17 10:48:52;;;;;;;2.13;0.60;;;14.20;99.90;;;;;;6150478;23;20577;-79
2020/12/17 10:51:18;;;;;;;2.57;0.70;;;14.20;99.90;;;;;;6152646;23;20526;-79
2020/12/17 10:53:44;;;;;;;1.40;0.60;;;14.20;99.90;;;;;;6151796;23;20534;-79
2020/12/17 10:56:11;;;;;;;1.67;0.60;;;14.20;99.90;;;;;;6152985;23;20636;-79
2020/12/17 10:58:38;;;;;;;4.93;0.70;;;14.10;99.90;;;;;;6152384;23;20522;-79
2020/12/17 11:01:04;;;;;;;2.03;0.50;;;14.10;99.90;;;;;;6151833;23;20621;-79
2020/12/17 11:03:33;;;;;;;1.00;0.50;;;14.10;99.90;;;;;;6153396;23;20556;-80
2020/12/17 11:06:01;;;;;;;1.57;0.50;;;14.10;99.90;;;;;;6153314;23;20550;-79
2020/12/17 11:08:28;;;;;;;4.00;0.70;;;14.10;99.90;;;;;;6152956;23;20533;-79
2020/12/17 11:10:55;;;;;;;1.60;0.60;;;14.20;99.90;;;;;;6155442;23;20617;-78
2020/12/17 11:13:21;;;;;;;2.43;0.70;;;14.20;99.90;;;;;;6152277;23;20598;-78
2020/12/17 11:15:51;;;;;;;1.73;0.60;;;14.30;99.90;;;;;;6156176;23;20573;-80
2020/12/17 11:18:17;;;;;;;1.80;0.57;;;14.30;99.90;;;;;;6155451;23;21118;-78
2020/12/17 11:20:43;;;;;;;2.17;0.70;;;14.40;99.90;;;;;;6181798;23;20588;-81
2020/12/17 11:23:10;;;;;;;2.80;0.90;;;14.40;99.90;;;;;;6181499;23;21077;-81
2020/12/17 11:25:39;;;;;;;1.20;0.60;;;14.50;99.90;;;;;;6181391;23;20920;-79
2020/12/17 11:28:09;;;;;;;1.90;0.80;;;14.50;99.90;;;;;;6155300;23;20146;-81
2020/12/17 11:30:36;;;;;;;1.97;0.70;;;14.50;99.90;;;;;;6181907;23;20518;-81
2020/12/17 11:33:03;;;;;;;2.63;1.50;;;14.50;99.90;;;;;;6155801;23;20850;-81
2020/12/17 11:35:29;;;;;;;4.50;1.10;;;14.50;99.90;;;;;;6181001;23;20579;-81
2020/12/17 11:37:55;;;;;;;1.67;0.90;;;14.50;99.90;;;;;;6180918;23;20528;-81
2020/12/17 11:40:22;;;;;;;3.70;1.43;;;14.50;99.90;;;;;;6155489;23;20601;-81
2020/12/17 11:42:54;;;;;;;1.73;0.83;;;14.50;99.90;;;;;;6181242;23;20625;-81
2020/12/17 11:45:20;;;;;;;2.00;0.90;;;14.50;99.90;;;;;;6155145;23;20580;-81
2020/12/17 11:47:46;;;;;;;4.50;0.80;;;14.50;99.90;;;;;;6158155;23;20851;-81
2020/12/17 11:50:11;;;;;;;2.63;0.70;;;14.50;99.90;;;;;;6154885;23;20510;-81
2020/12/17 11:52:37;;;;;;;1.87;0.70;;;14.40;99.90;;;;;;6181736;23;20150;-80
2020/12/17 11:55:08;;;;;;;2.87;0.70;;;14.40;99.90;;;;;;6155377;23;20165;-80
2020/12/17 11:57:35;;;;;;;1.27;0.67;;;14.30;99.90;;;;;;6181163;23;20490;-80
2020/12/17 12:00:04;;;;;;;3.13;0.90;;;14.30;99.90;;;;;;6155096;23;20962;-81
2020/12/17 12:02:30;;;;;;;4.57;0.90;;;14.30;99.90;;;;;;6155244;23;20521;-82
2020/12/17 12:04:56;;;;;;;2.97;0.83;;;14.40;99.90;;;;;;6181655;23;20549;-80
2020/12/17 12:07:25;;;;;;;12.60;1.00;;;14.30;99.90;;;;;;6155332;23;20184;-83
2020/12/17 12:09:54;;;;;;;3.77;0.90;;;14.40;99.90;;;;;;6155954;23;20142;-82
2020/12/17 12:12:20;;;;;;;3.70;1.00;;;14.50;99.90;;;;;;6130845;23;20542;-81
2020/12/17 12:14:46;;;;;;;1.37;0.70;;;14.60;99.90;;;;;;6182053;23;20579;-83
2020/12/17 12:17:12;;;;;;;5.57;1.47;;;14.60;99.90;;;;;;6181274;23;20559;-81
2020/12/17 12:19:38;;;;;;;2.23;0.70;;;14.70;99.90;;;;;;6154686;23;20573;-80
2020/12/17 12:22:04;;;;;;;4.30;1.00;;;14.80;99.90;;;;;;6180943;23;20510;-83
2020/12/17 12:24:30;;;;;;;4.87;2.07;;;14.80;99.90;;;;;;6132120;23;20875;-81
2020/12/17 12:26:57;;;;;;;10.40;6.70;;;14.90;99.90;;;;;;6156011;23;20556;-82
2020/12/17 12:29:25;;;;;;;7.50;5.20;;;15.00;99.90;;;;;;6130169;23;20545;-83
2020/12/17 12:31:57;;;;;;;12.30;4.63;;;15.10;99.90;;;;;;6130601;23;20631;-83
2020/12/17 12:34:26;;;;;;;8.53;4.47;;;15.20;99.90;;;;;;6181500;23;20537;-83
2020/12/17 12:36:54;;;;;;;5.80;3.33;;;15.30;99.90;;;;;;6181205;23;20584;-83
2020/12/17 12:39:21;;;;;;;3.50;1.67;;;15.30;99.90;;;;;;6130940;23;20565;-82
2020/12/17 12:41:51;;;;;;;3.53;1.10;;;15.30;99.90;;;;;;6128792;23;20564;-81
2020/12/17 12:44:19;;;;;;;4.17;0.80;;;15.30;99.90;;;;;;6180788;23;20520;-83
2020/12/17 12:46:49;;;;;;;3.70;1.60;;;15.30;99.90;;;;;;6160459;23;21031;-83
2020/12/17 12:49:16;;;;;;;4.03;1.83;;;15.30;99.90;;;;;;6155095;23;20667;-81
2020/12/17 12:51:42;;;;;;;9.90;5.10;;;15.20;99.90;;;;;;6154871;23;20528;-81
2020/12/17 12:54:08;;;;;;;9.63;4.90;;;15.20;99.90;;;;;;6181745;23;20572;-81
2020/12/17 12:56:34;;;;;;;6.07;3.13;;;15.20;99.90;;;;;;6181660;23;20545;-82
2020/12/17 12:59:00;;;;;;;3.03;1.70;;;15.20;99.90;;;;;;6154700;23;21132;-82
2020/12/17 13:01:36;;;;;;;2.17;0.80;;;15.10;99.90;;;;;;6180895;23;20580;-81
2020/12/17 13:04:02;;;;;;;2.70;0.67;;;15.10;99.90;;;;;;6181099;23;20529;-84
2020/12/17 13:06:27;;;;;;;2.77;0.73;;;15.00;99.90;;;;;;6182193;23;20608;-84
2020/12/17 13:08:54;;;;;;;2.43;0.70;;;15.00;99.90;;;;;;6154724;23;20533;-83
2020/12/17 13:11:22;;;;;;;1.57;0.70;;;15.00;99.90;;;;;;6181289;23;20520;-82
2020/12/17 13:13:49;;;;;;;1.50;0.70;;;14.90;99.90;;;;;;6155271;23;20941;-82
2020/12/17 13:16:35;;;;;;;2.47;1.40;;;14.90;99.90;;;;;;6181979;23;20591;-82
2020/12/17 13:19:00;;;;;;;3.37;1.40;;;14.90;99.90;;;;;;6181479;23;20537;-82